ロングイェールビーン の空港の天気 - METARとTAF

スヴァールバル空港 ( ENSB / LYR ) - スヴァールバル諸島・ヤンマイエン島 ロングイェールビーン
飛行場実況気象(Metar)
観測時間04/19 13:20 CEST (04/19 11:20 UTC)
風向・風速東南東 2m/s
視程10km以上
天気現象
少しの雲 雲底高度 610m
気温-9℃
湿度67%
気圧1028hPa
METARENSB 191120Z 12003KT 9999 FEW020 M09/M14 Q1028 NOSIG RMK WIND 1400FT 21003KT
過去の天気等 Google飛行場航空写真 Wunderground天気予報

過去48時間のMETAR

飛行場予報(TAF)
発表時間: -
TAF ENSB 1906/2006 12008KT 9999 FEW025